Time;durP1;ratioP1;P1;durP2;ratioP2;P2;SDS_P1;SDS_P2;PMS_P1;PMS_P2;Temp;Humidity;BMP_temperature;BMP_pressure;BME280_temperature;BME280_humidity;BME280_pressure;Samples;Min_cycle;Max_cycle;Signal;HPM_P1;HPM_P2
2022/01/16 00:04:40;;;;;;;92.90;49.17;;;;;;;;;;775927;177;919125;-67
2022/01/16 00:07:06;;;;;;;96.33;48.63;;;;;;;;;;779208;176;919187;-68
2022/01/16 00:09:32;;;;;;;88.07;50.30;;;;;;;;;;784893;176;918917;-68
2022/01/16 00:12:00;;;;;;;97.67;50.47;;;;;;;;;;779767;176;918943;-68
2022/01/16 00:14:25;;;;;;;82.27;47.87;;;;;;;;;;780216;174;918802;-67
2022/01/16 00:16:51;;;;;;;99.60;52.20;;;;;;;;;;783824;175;918016;-68
2022/01/16 00:19:16;;;;;;;77.27;48.93;;;;;;;;;;767865;177;918322;-67
2022/01/16 00:21:43;;;;;;;94.90;53.30;;;;;;;;;;777755;177;918657;-67
2022/01/16 00:24:09;;;;;;;87.72;50.85;;;;;;;;;;782254;177;919365;-67
2022/01/16 00:26:35;;;;;;;95.97;50.53;;;;;;;;;;765392;183;918783;-67
2022/01/16 00:29:00;;;;;;;85.57;49.27;;;;;;;;;;782816;174;919478;-68
2022/01/16 00:31:26;;;;;;;99.03;51.00;;;;;;;;;;772884;179;918852;-67
2022/01/16 00:33:52;;;;;;;108.17;54.87;;;;;;;;;;772385;179;918882;-67
2022/01/16 00:36:19;;;;;;;101.85;52.42;;;;;;;;;;767918;179;918975;-67
2022/01/16 00:38:45;;;;;;;93.87;52.07;;;;;;;;;;766020;180;918467;-67
2022/01/16 00:41:10;;;;;;;98.23;53.47;;;;;;;;;;770535;181;918234;-68
2022/01/16 00:43:36;;;;;;;109.20;61.50;;;;;;;;;;782379;177;918700;-68
2022/01/16 00:46:02;;;;;;;97.87;50.80;;;;;;;;;;781014;177;919544;-68
2022/01/16 00:48:28;;;;;;;102.23;57.83;;;;;;;;;;787248;177;919153;-68
2022/01/16 00:50:54;;;;;;;103.50;52.33;;;;;;;;;;775896;177;920045;-67
2022/01/16 00:53:20;;;;;;;105.03;53.73;;;;;;;;;;785892;175;919368;-68
2022/01/16 00:55:45;;;;;;;97.97;54.40;;;;;;;;;;778200;177;919114;-68
2022/01/16 00:58:11;;;;;;;113.93;57.47;;;;;;;;;;787178;177;916237;-67
2022/01/16 01:00:37;;;;;;;99.10;54.87;;;;;;;;;;780459;176;916074;-68
2022/01/16 01:03:04;;;;;;;98.87;52.20;;;;;;;;;;782812;176;916292;-67
2022/01/16 01:05:29;;;;;;;92.72;54.05;;;;;;;;;;784854;176;953771;-67
2022/01/16 01:07:55;;;;;;;104.53;54.43;;;;;;;;;;784328;176;919927;-67
2022/01/16 01:10:28;;;;;;;99.70;57.17;;;;;;;;;;781073;177;919565;-67
2022/01/16 01:12:53;;;;;;;94.28;51.17;;;;;;;;;;786670;177;919271;-67
2022/01/16 01:15:17;;;;;;;96.07;53.27;;;;;;;;;;782113;177;919838;-67
2022/01/16 01:17:45;;;;;;;102.80;53.20;;;;;;;;;;775474;177;912824;-67
2022/01/16 01:20:09;;;;;;;110.40;56.60;;;;;;;;;;778971;176;922792;-68
2022/01/16 01:22:35;;;;;;;99.30;56.57;;;;;;;;;;785789;176;1014987;-67
2022/01/16 01:25:01;;;;;;;103.17;52.67;;;;;;;;;;782162;176;910540;-67
2022/01/16 01:27:31;;;;;;;105.53;57.73;;;;;;;;;;781741;177;909360;-67
2022/01/16 01:30:00;;;;;;;98.73;56.33;;;;;;;;;;783310;177;914384;-67
2022/01/16 01:32:19;;;;;;;88.18;54.35;;;;;;;;;;777376;177;914198;-67
2022/01/16 01:34:45;;;;;;;102.10;54.57;;;;;;;;;;777160;177;914422;-67
2022/01/16 01:37:11;;;;;;;105.03;53.00;;;;;;;;;;785411;176;912962;-67
2022/01/16 01:39:37;;;;;;;97.47;54.43;;;;;;;;;;779223;177;911309;-66
2022/01/16 01:42:09;;;;;;;106.90;56.43;;;;;;;;;;780331;176;915237;-67
2022/01/16 01:52:17;;;;;;;91.73;51.23;;;;;;;;;;787402;176;915794;-68
2022/01/16 01:54:42;;;;;;;92.32;52.72;;;;;;;;;;779767;177;916520;-68
2022/01/16 01:57:08;;;;;;;89.87;54.57;;;;;;;;;;782540;177;920055;-67
2022/01/16 01:59:34;;;;;;;95.20;54.60;;;;;;;;;;787300;177;918738;-69
2022/01/16 02:02:00;;;;;;;97.90;54.60;;;;;;;;;;789131;173;919331;-68
2022/01/16 02:04:26;;;;;;;98.63;51.30;;;;;;;;;;782256;176;918195;-67
2022/01/16 02:06:52;;;;;;;98.67;53.30;;;;;;;;;;788934;177;919482;-67
2022/01/16 02:09:17;;;;;;;91.87;49.60;;;;;;;;;;776348;177;918887;-67
2022/01/16 02:11:43;;;;;;;89.43;50.47;;;;;;;;;;770690;176;938346;-67
2022/01/16 02:14:25;;;;;;;81.90;47.00;;;;;;;;;;781068;177;921021;-67
2022/01/16 02:30:12;;;;;;;83.70;50.40;;;;;;;;;;781582;176;920991;-67
2022/01/16 02:32:23;;;;;;;82.17;43.10;;;;;;;;;;780220;178;919657;-67
2022/01/16 02:37:01;;;;;;;75.80;38.70;;;;;;;;;;784700;176;1020992;-67
2022/01/16 02:39:24;;;;;;;82.32;42.17;;;;;;;;;;776938;177;919054;-67
2022/01/16 02:41:52;;;;;;;71.07;39.37;;;;;;;;;;774645;180;919165;-68
2022/01/16 02:44:23;;;;;;;63.50;40.47;;;;;;;;;;784983;177;919396;-67
2022/01/16 02:46:44;;;;;;;78.37;38.30;;;;;;;;;;779990;177;919976;-66
2022/01/16 02:49:15;;;;;;;72.63;40.07;;;;;;;;;;784066;177;919361;-67
2022/01/16 02:51:41;;;;;;;85.27;43.60;;;;;;;;;;780633;176;914793;-67
2022/01/16 02:54:07;;;;;;;95.00;46.33;;;;;;;;;;778537;176;914710;-67
2022/01/16 02:56:35;;;;;;;81.07;41.77;;;;;;;;;;776594;176;1119546;-67
2022/01/16 02:58:58;;;;;;;74.57;42.23;;;;;;;;;;784290;177;913302;-67
2022/01/16 03:01:24;;;;;;;89.87;42.57;;;;;;;;;;777478;177;918892;-66
2022/01/16 03:03:50;;;;;;;83.30;41.93;;;;;;;;;;777262;177;919053;-67
2022/01/16 03:06:16;;;;;;;95.47;42.28;;;;;;;;;;774683;181;919138;-67
2022/01/16 03:08:42;;;;;;;72.60;42.63;;;;;;;;;;782887;176;919090;-67
2022/01/16 03:11:15;;;;;;;71.67;40.33;;;;;;;;;;777052;177;919322;-67
2022/01/16 03:13:35;;;;;;;80.83;41.63;;;;;;;;;;789358;176;1016262;-67
2022/01/16 03:16:00;;;;;;;83.63;45.80;;;;;;;;;;781459;177;920102;-67
2022/01/16 03:23:38;;;;;;;72.90;40.33;;;;;;;;;;769873;179;919113;-67
2022/01/16 03:26:04;;;;;;;77.30;38.47;;;;;;;;;;770571;180;918980;-67
2022/01/16 03:28:30;;;;;;;78.13;37.50;;;;;;;;;;751972;184;919879;-67
2022/01/16 03:30:56;;;;;;;76.33;37.60;;;;;;;;;;785149;176;922362;-67
2022/01/16 03:33:22;;;;;;;71.43;36.80;;;;;;;;;;783747;177;915863;-67
2022/01/16 03:35:48;;;;;;;71.47;35.43;;;;;;;;;;778449;176;921272;-67
2022/01/16 03:38:13;;;;;;;71.77;36.37;;;;;;;;;;778395;177;915673;-66
2022/01/16 03:40:39;;;;;;;82.37;38.08;;;;;;;;;;774340;176;915678;-67
2022/01/16 03:43:14;;;;;;;77.13;38.80;;;;;;;;;;771071;177;921453;-67
2022/01/16 03:45:40;;;;;;;76.63;41.43;;;;;;;;;;766812;179;919945;-66
2022/01/16 03:48:06;;;;;;;74.03;40.40;;;;;;;;;;767865;181;921327;-66
2022/01/16 03:50:32;;;;;;;73.73;37.33;;;;;;;;;;786945;177;913948;-67
2022/01/16 03:52:58;;;;;;;89.60;42.50;;;;;;;;;;781465;176;923844;-66
2022/01/16 03:55:24;;;;;;;78.90;37.85;;;;;;;;;;781196;177;915469;-66
2022/01/16 03:57:50;;;;;;;75.27;34.23;;;;;;;;;;786068;177;918208;-67
2022/01/16 04:00:15;;;;;;;68.83;36.73;;;;;;;;;;791259;177;919536;-66
2022/01/16 04:02:41;;;;;;;63.38;35.42;;;;;;;;;;778909;176;918084;-66
2022/01/16 04:05:07;;;;;;;69.03;36.10;;;;;;;;;;770835;180;919641;-66
2022/01/16 04:07:35;;;;;;;81.10;37.93;;;;;;;;;;770504;180;917810;-66
2022/01/16 04:09:59;;;;;;;68.73;35.87;;;;;;;;;;784536;176;917273;-65
2022/01/16 04:12:25;;;;;;;68.17;34.53;;;;;;;;;;783327;177;916230;-67
2022/01/16 04:17:32;;;;;;;69.70;33.27;;;;;;;;;;785318;176;919216;-67
2022/01/16 04:19:57;;;;;;;61.30;31.60;;;;;;;;;;776662;177;941243;-66
2022/01/16 04:22:23;;;;;;;59.42;30.90;;;;;;;;;;783527;176;918396;-66
2022/01/16 04:24:49;;;;;;;59.30;30.97;;;;;;;;;;776197;180;918753;-67
2022/01/16 04:27:15;;;;;;;58.90;32.43;;;;;;;;;;785792;176;921283;-67
2022/01/16 04:29:42;;;;;;;70.17;34.70;;;;;;;;;;781065;176;919908;-67
2022/01/16 04:32:07;;;;;;;57.30;31.83;;;;;;;;;;780300;176;918898;-67
2022/01/16 04:34:33;;;;;;;63.27;32.90;;;;;;;;;;785538;179;918714;-67
2022/01/16 04:36:59;;;;;;;68.28;30.30;;;;;;;;;;779841;177;919171;-67
2022/01/16 04:39:31;;;;;;;70.10;34.20;;;;;;;;;;783069;176;919480;-65
2022/01/16 04:44:22;;;;;;;63.00;33.90;;;;;;;;;;781308;177;910905;-65
2022/01/16 04:46:48;;;;;;;64.30;33.00;;;;;;;;;;781256;177;919891;-64
2022/01/16 04:49:14;;;;;;;71.07;31.27;;;;;;;;;;780098;179;918723;-64
2022/01/16 04:51:39;;;;;;;60.03;33.97;;;;;;;;;;778479;176;1634011;-67
2022/01/16 04:54:05;;;;;;;65.23;32.13;;;;;;;;;;768200;179;921009;-67
2022/01/16 04:56:31;;;;;;;56.90;29.27;;;;;;;;;;767831;179;921464;-66
2022/01/16 04:58:57;;;;;;;56.73;33.30;;;;;;;;;;769289;181;920720;-65
2022/01/16 05:01:23;;;;;;;66.80;32.90;;;;;;;;;;750190;185;921380;-67
2022/01/16 05:03:49;;;;;;;69.10;30.80;;;;;;;;;;782296;176;919337;-67
2022/01/16 05:06:15;;;;;;;73.97;31.48;;;;;;;;;;791251;176;917025;-67
2022/01/16 05:08:40;;;;;;;59.40;29.17;;;;;;;;;;786353;177;918543;-67
2022/01/16 05:11:08;;;;;;;59.35;31.73;;;;;;;;;;781924;176;915469;-66
2022/01/16 05:18:48;;;;;;;58.83;29.70;;;;;;;;;;782315;177;916097;-65
2022/01/16 05:21:13;;;;;;;59.43;29.20;;;;;;;;;;779290;176;919569;-66
2022/01/16 05:23:41;;;;;;;76.75;31.92;;;;;;;;;;780755;177;922257;-66
2022/01/16 05:26:06;;;;;;;54.60;25.43;;;;;;;;;;782617;177;948791;-65
2022/01/16 05:28:31;;;;;;;59.90;28.25;;;;;;;;;;778006;177;916627;-65
2022/01/16 05:30:57;;;;;;;55.10;28.30;;;;;;;;;;780513;177;920050;-65
2022/01/16 05:33:23;;;;;;;60.67;27.73;;;;;;;;;;777438;177;915550;-65
2022/01/16 05:35:49;;;;;;;54.93;27.60;;;;;;;;;;786294;176;920297;-65
2022/01/16 05:38:14;;;;;;;45.10;26.57;;;;;;;;;;783392;176;913286;-65
2022/01/16 05:40:40;;;;;;;59.87;30.47;;;;;;;;;;779185;176;1020676;-65
2022/01/16 05:43:06;;;;;;;60.30;28.70;;;;;;;;;;780767;176;919976;-66
2022/01/16 05:45:32;;;;;;;52.43;27.43;;;;;;;;;;781155;176;920025;-66
2022/01/16 05:47:58;;;;;;;64.00;28.80;;;;;;;;;;784141;176;919627;-66
2022/01/16 05:50:24;;;;;;;54.03;29.23;;;;;;;;;;774009;180;919245;-65
2022/01/16 05:52:50;;;;;;;54.60;27.50;;;;;;;;;;766734;179;951049;-66
2022/01/16 05:55:16;;;;;;;73.03;30.30;;;;;;;;;;791193;176;919214;-66
2022/01/16 05:57:42;;;;;;;59.75;29.25;;;;;;;;;;787198;176;919270;-65
2022/01/16 06:00:09;;;;;;;51.53;31.50;;;;;;;;;;781553;177;920518;-66
2022/01/16 06:02:34;;;;;;;49.43;28.93;;;;;;;;;;780846;177;919192;-66
2022/01/16 06:05:00;;;;;;;57.83;30.90;;;;;;;;;;781713;177;918226;-66
2022/01/16 06:07:26;;;;;;;54.53;29.30;;;;;;;;;;784868;177;919353;-66
2022/01/16 06:09:53;;;;;;;63.23;32.23;;;;;;;;;;779276;177;918998;-66
2022/01/16 06:12:19;;;;;;;59.53;31.53;;;;;;;;;;779087;176;918020;-66
2022/01/16 06:14:45;;;;;;;73.07;34.50;;;;;;;;;;787196;176;918370;-67
2022/01/16 06:17:10;;;;;;;59.53;33.00;;;;;;;;;;781284;177;920107;-66
2022/01/16 06:19:36;;;;;;;70.22;38.55;;;;;;;;;;777487;177;1019372;-66
2022/01/16 06:22:03;;;;;;;74.45;34.83;;;;;;;;;;783785;176;921824;-65
2022/01/16 06:24:29;;;;;;;59.53;29.80;;;;;;;;;;789648;177;919527;-66
2022/01/16 06:26:54;;;;;;;54.70;28.40;;;;;;;;;;779617;177;945301;-66
2022/01/16 06:29:20;;;;;;;52.90;29.50;;;;;;;;;;780966;176;920979;-65
2022/01/16 06:31:46;;;;;;;55.00;30.53;;;;;;;;;;769037;181;916075;-66
2022/01/16 06:34:12;;;;;;;73.73;35.27;;;;;;;;;;754295;184;917031;-66
2022/01/16 06:36:38;;;;;;;80.60;33.87;;;;;;;;;;748684;186;918943;-67
2022/01/16 06:39:04;;;;;;;66.37;31.70;;;;;;;;;;767833;184;1123966;-66
2022/01/16 06:41:30;;;;;;;73.73;36.20;;;;;;;;;;778757;177;919586;-66
2022/01/16 06:43:55;;;;;;;74.67;34.20;;;;;;;;;;779964;177;919692;-66
2022/01/16 06:46:21;;;;;;;75.73;35.53;;;;;;;;;;785400;176;1020475;-65
2022/01/16 06:48:47;;;;;;;75.70;34.87;;;;;;;;;;780532;175;918926;-66
2022/01/16 06:51:13;;;;;;;90.17;39.10;;;;;;;;;;781194;175;923210;-66
2022/01/16 06:53:39;;;;;;;112.43;42.20;;;;;;;;;;781796;176;918935;-65
2022/01/16 06:56:05;;;;;;;138.87;49.17;;;;;;;;;;786164;176;1022447;-67
2022/01/16 06:58:30;;;;;;;113.57;47.07;;;;;;;;;;783132;176;918828;-66
2022/01/16 07:00:56;;;;;;;107.90;46.80;;;;;;;;;;780318;176;925980;-66
2022/01/16 07:03:22;;;;;;;112.00;48.30;;;;;;;;;;787320;176;918373;-65
2022/01/16 07:05:48;;;;;;;127.47;47.62;;;;;;;;;;779745;176;919219;-66
2022/01/16 07:08:14;;;;;;;120.47;44.23;;;;;;;;;;782148;176;917945;-66
2022/01/16 07:10:40;;;;;;;132.57;46.80;;;;;;;;;;774614;180;917797;-69
2022/01/16 07:13:06;;;;;;;129.30;40.17;;;;;;;;;;749340;184;919493;-65
2022/01/16 07:15:31;;;;;;;115.73;48.23;;;;;;;;;;751543;184;919026;-66
2022/01/16 07:17:57;;;;;;;138.80;42.57;;;;;;;;;;749346;184;919062;-66
2022/01/16 07:20:23;;;;;;;99.63;45.50;;;;;;;;;;786707;176;918928;-66
2022/01/16 07:22:49;;;;;;;103.80;45.90;;;;;;;;;;782056;177;918201;-66
2022/01/16 07:25:15;;;;;;;126.03;44.97;;;;;;;;;;783068;177;917955;-67
2022/01/16 07:27:41;;;;;;;127.00;45.53;;;;;;;;;;768250;179;919120;-67
2022/01/16 07:30:07;;;;;;;112.63;45.33;;;;;;;;;;781479;177;919504;-66
2022/01/16 07:32:32;;;;;;;81.53;39.70;;;;;;;;;;780146;177;918629;-65
2022/01/16 07:34:58;;;;;;;176.43;45.77;;;;;;;;;;784115;176;918471;-66
2022/01/16 07:37:25;;;;;;;113.03;44.60;;;;;;;;;;777606;177;1020941;-65
2022/01/16 07:39:51;;;;;;;121.40;39.80;;;;;;;;;;777885;177;1020483;-65
2022/01/16 07:42:16;;;;;;;114.23;39.93;;;;;;;;;;787144;176;918730;-65
2022/01/16 07:44:42;;;;;;;122.30;45.87;;;;;;;;;;784936;176;919018;-66
2022/01/16 07:47:08;;;;;;;97.43;42.87;;;;;;;;;;780757;177;930203;-65
2022/01/16 07:49:34;;;;;;;96.97;45.88;;;;;;;;;;779018;177;918398;-65
2022/01/16 07:52:00;;;;;;;101.10;46.50;;;;;;;;;;782752;176;919856;-66
2022/01/16 07:54:26;;;;;;;109.37;48.33;;;;;;;;;;777488;176;918677;-66
2022/01/16 07:56:51;;;;;;;118.40;46.13;;;;;;;;;;777749;178;919561;-65
2022/01/16 07:59:17;;;;;;;97.40;46.30;;;;;;;;;;788015;177;918958;-65
2022/01/16 08:01:43;;;;;;;117.07;49.10;;;;;;;;;;784148;176;919803;-64
2022/01/16 08:04:09;;;;;;;123.20;49.37;;;;;;;;;;782384;176;941002;-65
2022/01/16 08:06:35;;;;;;;104.50;47.40;;;;;;;;;;792917;176;635224;-64
2022/01/16 08:09:01;;;;;;;116.27;52.93;;;;;;;;;;781036;176;919400;-64
2022/01/16 08:11:27;;;;;;;106.17;49.80;;;;;;;;;;780654;177;918529;-63
2022/01/16 08:13:52;;;;;;;113.33;47.13;;;;;;;;;;785984;176;629109;-64
2022/01/16 08:16:18;;;;;;;102.67;48.27;;;;;;;;;;788973;176;633179;-63
2022/01/16 08:18:44;;;;;;;94.40;45.50;;;;;;;;;;783479;177;640354;-64
2022/01/16 08:21:10;;;;;;;109.43;46.60;;;;;;;;;;791423;177;623859;-64
2022/01/16 08:23:36;;;;;;;111.95;48.92;;;;;;;;;;792566;176;916283;-63
2022/01/16 08:26:04;;;;;;;122.50;48.40;;;;;;;;;;780830;176;919099;-63
2022/01/16 08:28:27;;;;;;;99.40;49.08;;;;;;;;;;780991;176;914524;-64
2022/01/16 08:30:53;;;;;;;108.20;44.10;;;;;;;;;;801161;175;629834;-63
2022/01/16 08:33:19;;;;;;;109.27;49.20;;;;;;;;;;789275;176;641667;-63
2022/01/16 08:35:45;;;;;;;112.53;48.97;;;;;;;;;;783799;177;815447;-62
2022/01/16 08:38:11;;;;;;;110.60;45.87;;;;;;;;;;782530;176;920954;-60
2022/01/16 08:40:37;;;;;;;102.60;43.27;;;;;;;;;;783998;177;1097291;-61
2022/01/16 08:43:08;;;;;;;123.20;53.00;;;;;;;;;;785072;175;919215;-61
2022/01/16 08:45:28;;;;;;;125.10;55.50;;;;;;;;;;779852;177;919305;-60
2022/01/16 08:47:54;;;;;;;116.03;51.13;;;;;;;;;;786637;177;919484;-62
2022/01/16 08:50:20;;;;;;;95.43;45.57;;;;;;;;;;771141;177;1122760;-61
2022/01/16 08:52:46;;;;;;;121.50;46.50;;;;;;;;;;782159;176;919395;-61
2022/01/16 08:55:12;;;;;;;86.47;45.43;;;;;;;;;;770269;180;918886;-61
2022/01/16 08:57:38;;;;;;;104.97;44.87;;;;;;;;;;780955;177;920101;-62
2022/01/16 09:00:04;;;;;;;101.30;40.80;;;;;;;;;;777095;176;918409;-62
2022/01/16 09:02:30;;;;;;;83.35;39.03;;;;;;;;;;774637;180;919544;-62
2022/01/16 09:04:56;;;;;;;82.10;36.13;;;;;;;;;;755072;183;920442;-62
2022/01/16 09:07:22;;;;;;;68.67;32.97;;;;;;;;;;780564;176;919657;-63
2022/01/16 09:09:47;;;;;;;86.03;35.50;;;;;;;;;;777225;177;920195;-63
2022/01/16 09:12:14;;;;;;;67.00;31.17;;;;;;;;;;789441;176;918747;-63
2022/01/16 09:14:40;;;;;;;77.80;30.37;;;;;;;;;;780586;176;918060;-62
2022/01/16 09:17:06;;;;;;;64.70;26.90;;;;;;;;;;780322;176;921163;-64
2022/01/16 09:19:32;;;;;;;70.53;32.00;;;;;;;;;;773802;180;919501;-64
2022/01/16 09:21:58;;;;;;;73.37;26.40;;;;;;;;;;781049;176;918840;-65
2022/01/16 09:24:24;;;;;;;45.37;23.90;;;;;;;;;;779116;178;918962;-65
2022/01/16 09:26:54;;;;;;;54.33;27.30;;;;;;;;;;787066;177;918008;-66
2022/01/16 09:29:16;;;;;;;43.33;22.23;;;;;;;;;;792300;174;919177;-65
2022/01/16 09:31:42;;;;;;;46.37;20.30;;;;;;;;;;779521;177;921744;-67
2022/01/16 09:34:07;;;;;;;59.00;20.17;;;;;;;;;;778362;177;918705;-67
2022/01/16 09:36:34;;;;;;;39.93;19.30;;;;;;;;;;787644;176;917593;-67
2022/01/16 09:39:00;;;;;;;45.40;21.83;;;;;;;;;;780820;176;918887;-67
2022/01/16 09:41:26;;;;;;;36.87;20.10;;;;;;;;;;781355;176;918547;-67
2022/01/16 09:43:51;;;;;;;43.50;19.40;;;;;;;;;;784995;176;918514;-66
2022/01/16 09:46:17;;;;;;;34.20;18.13;;;;;;;;;;782526;177;919477;-67
2022/01/16 09:48:43;;;;;;;33.83;19.60;;;;;;;;;;780370;177;919662;-68
2022/01/16 09:51:09;;;;;;;33.97;19.30;;;;;;;;;;786555;176;911665;-67
2022/01/16 09:53:35;;;;;;;42.13;19.20;;;;;;;;;;779767;176;919634;-67
2022/01/16 09:56:01;;;;;;;38.40;19.50;;;;;;;;;;777991;176;1038950;-67
2022/01/16 09:58:27;;;;;;;35.57;17.67;;;;;;;;;;776290;176;1021469;-67
2022/01/16 10:00:53;;;;;;;41.03;16.53;;;;;;;;;;788104;177;629918;-67
2022/01/16 10:03:38;;;;;;;41.17;16.10;;;;;;;;;;782729;177;916959;-67
2022/01/16 10:06:10;;;;;;;31.73;10.60;;;;;;;;;;792046;176;624926;-66
2022/01/16 10:08:36;;;;;;;30.63;15.07;;;;;;;;;;779230;176;916451;-68
2022/01/16 10:11:02;;;;;;;32.90;15.70;;;;;;;;;;787464;176;920453;-67
2022/01/16 10:13:36;;;;;;;43.08;15.07;;;;;;;;;;782162;176;918784;-69
2022/01/16 10:15:54;;;;;;;29.20;16.07;;;;;;;;;;780717;176;920174;-68
2022/01/16 10:18:20;;;;;;;30.90;14.27;;;;;;;;;;788295;175;904933;-67
2022/01/16 10:20:47;;;;;;;45.97;18.20;;;;;;;;;;763555;183;620079;-67
2022/01/16 10:23:16;;;;;;;22.80;11.13;;;;;;;;;;769792;178;917828;-68
2022/01/16 10:25:43;;;;;;;34.57;15.40;;;;;;;;;;755818;184;920301;-69
2022/01/16 10:28:13;;;;;;;27.70;13.90;;;;;;;;;;760890;184;919091;-68
2022/01/16 10:30:40;;;;;;;37.42;17.35;;;;;;;;;;772764;179;918640;-68
2022/01/16 10:33:05;;;;;;;32.83;15.73;;;;;;;;;;781936;176;918347;-68
2022/01/16 10:35:31;;;;;;;21.43;11.20;;;;;;;;;;780997;177;935253;-68
2022/01/16 10:37:59;;;;;;;28.80;14.70;;;;;;;;;;785783;180;918266;-67
2022/01/16 10:40:24;;;;;;;32.30;15.23;;;;;;;;;;784144;177;918679;-67
2022/01/16 10:42:49;;;;;;;27.30;12.77;;;;;;;;;;780250;177;918786;-68
2022/01/16 10:45:15;;;;;;;22.73;13.63;;;;;;;;;;787723;176;922807;-67
2022/01/16 10:47:41;;;;;;;23.00;13.67;;;;;;;;;;780826;176;919386;-67
2022/01/16 10:50:08;;;;;;;32.93;15.13;;;;;;;;;;780564;176;918932;-68
2022/01/16 10:52:34;;;;;;;30.73;15.17;;;;;;;;;;779387;179;919690;-67
2022/01/16 10:55:04;;;;;;;30.13;13.73;;;;;;;;;;784716;176;916712;-67
2022/01/16 10:57:29;;;;;;;26.00;12.67;;;;;;;;;;775168;177;921478;-67
2022/01/16 11:00:07;;;;;;;32.27;12.50;;;;;;;;;;769264;179;920412;-67
2022/01/16 11:02:33;;;;;;;29.40;13.63;;;;;;;;;;778570;177;919187;-67
2022/01/16 11:05:06;;;;;;;23.83;11.80;;;;;;;;;;787463;177;918289;-66
2022/01/16 11:07:31;;;;;;;19.70;10.68;;;;;;;;;;780537;177;918833;-66
2022/01/16 11:09:57;;;;;;;24.63;11.77;;;;;;;;;;780737;177;918438;-66
2022/01/16 11:12:23;;;;;;;23.97;11.63;;;;;;;;;;778201;179;990548;-67
2022/01/16 11:14:49;;;;;;;26.00;11.57;;;;;;;;;;784248;177;922039;-66
2022/01/16 11:17:15;;;;;;;23.23;10.43;;;;;;;;;;784696;176;1021179;-67
2022/01/16 11:19:41;;;;;;;27.10;12.23;;;;;;;;;;781432;177;915636;-66
2022/01/16 11:22:10;;;;;;;38.20;16.80;;;;;;;;;;783751;178;919139;-67
2022/01/16 11:24:36;;;;;;;18.90;10.67;;;;;;;;;;780065;177;919986;-67
2022/01/16 11:26:59;;;;;;;29.43;12.97;;;;;;;;;;783836;176;919220;-67
2022/01/16 11:29:25;;;;;;;29.40;12.60;;;;;;;;;;782051;180;918661;-67
2022/01/16 11:31:50;;;;;;;40.93;11.90;;;;;;;;;;767664;180;918775;-67
2022/01/16 11:34:16;;;;;;;24.92;13.20;;;;;;;;;;767211;180;920672;-67
2022/01/16 11:36:42;;;;;;;21.53;10.63;;;;;;;;;;782115;176;918433;-67
2022/01/16 11:39:08;;;;;;;15.97;8.90;;;;;;;;;;788413;176;918368;-66
2022/01/16 11:41:35;;;;;;;23.50;9.85;;;;;;;;;;782623;176;918130;-67
2022/01/16 11:44:00;;;;;;;23.57;10.60;;;;;;;;;;779100;177;918555;-67
2022/01/16 11:46:26;;;;;;;21.90;9.80;;;;;;;;;;779809;179;919159;-67
2022/01/16 11:49:07;;;;;;;27.43;10.57;;;;;;;;;;765469;179;966316;-65
2022/01/16 11:51:51;;;;;;;24.57;9.70;;;;;;;;;;781258;176;918694;-65
2022/01/16 11:54:19;;;;;;;19.33;10.93;;;;;;;;;;780215;176;920462;-66
2022/01/16 11:56:49;;;;;;;25.00;10.80;;;;;;;;;;779777;176;918443;-66
2022/01/16 11:59:15;;;;;;;17.57;9.30;;;;;;;;;;781478;176;919867;-65
2022/01/16 12:01:42;;;;;;;13.30;8.07;;;;;;;;;;782958;177;919427;-64
2022/01/16 12:04:08;;;;;;;25.63;11.70;;;;;;;;;;788759;176;919974;-64
2022/01/16 12:06:35;;;;;;;24.80;13.17;;;;;;;;;;780238;176;919113;-64
2022/01/16 12:09:01;;;;;;;22.30;12.50;;;;;;;;;;785421;177;919059;-62
2022/01/16 12:11:31;;;;;;;13.07;7.87;;;;;;;;;;764341;181;949379;-63
2022/01/16 12:13:58;;;;;;;24.93;11.50;;;;;;;;;;779446;177;1015639;-64
2022/01/16 12:16:28;;;;;;;22.37;11.80;;;;;;;;;;780169;177;916354;-62
2022/01/16 12:18:54;;;;;;;24.70;9.87;;;;;;;;;;775011;179;914885;-62
2022/01/16 12:21:26;;;;;;;28.65;12.20;;;;;;;;;;777086;177;919231;-62
2022/01/16 12:23:52;;;;;;;25.60;12.07;;;;;;;;;;780930;177;919099;-61
2022/01/16 12:26:18;;;;;;;24.12;12.48;;;;;;;;;;767616;181;1021373;-60
2022/01/16 12:28:43;;;;;;;21.10;11.67;;;;;;;;;;776941;180;919198;-61
2022/01/16 12:31:10;;;;;;;24.40;12.93;;;;;;;;;;767824;180;919513;-61
2022/01/16 12:33:35;;;;;;;30.95;15.38;;;;;;;;;;788287;175;918542;-62
2022/01/16 12:36:05;;;;;;;25.43;8.47;;;;;;;;;;785494;177;918535;-61
2022/01/16 12:38:27;;;;;;;21.70;11.90;;;;;;;;;;781219;177;917448;-61
2022/01/16 12:40:58;;;;;;;22.33;10.10;;;;;;;;;;779719;177;921584;-61
2022/01/16 12:43:29;;;;;;;24.70;12.43;;;;;;;;;;776631;179;929244;-61
2022/01/16 12:45:51;;;;;;;17.87;9.37;;;;;;;;;;774705;180;919018;-62
2022/01/16 12:48:17;;;;;;;31.30;15.80;;;;;;;;;;778107;176;918010;-62
2022/01/16 12:50:43;;;;;;;42.72;16.58;;;;;;;;;;790467;174;917129;-63
2022/01/16 12:53:09;;;;;;;22.90;14.13;;;;;;;;;;772488;178;918853;-62
2022/01/16 12:55:34;;;;;;;26.85;14.35;;;;;;;;;;780576;177;918405;-61
2022/01/16 12:58:06;;;;;;;34.43;14.87;;;;;;;;;;781363;177;919482;-62
2022/01/16 13:00:32;;;;;;;38.00;16.10;;;;;;;;;;780379;177;919233;-62
2022/01/16 13:03:01;;;;;;;30.70;14.73;;;;;;;;;;776033;179;919551;-61
2022/01/16 13:05:24;;;;;;;28.93;15.80;;;;;;;;;;784437;174;920088;-62
2022/01/16 13:07:50;;;;;;;23.70;12.23;;;;;;;;;;788444;176;922789;-62
2022/01/16 13:10:15;;;;;;;28.03;14.43;;;;;;;;;;789571;176;918700;-61
2022/01/16 13:12:41;;;;;;;41.00;14.93;;;;;;;;;;777853;177;914531;-62
2022/01/16 13:15:08;;;;;;;28.20;14.60;;;;;;;;;;779636;177;930983;-62
2022/01/16 13:17:33;;;;;;;30.40;14.90;;;;;;;;;;787215;176;918165;-62
2022/01/16 13:20:02;;;;;;;21.47;13.43;;;;;;;;;;780466;177;917937;-62
2022/01/16 13:22:25;;;;;;;30.73;14.53;;;;;;;;;;777533;177;916900;-61
2022/01/16 13:24:53;;;;;;;17.77;10.50;;;;;;;;;;781832;177;918508;-61
2022/01/16 13:27:19;;;;;;;22.10;10.30;;;;;;;;;;781180;176;914757;-63
2022/01/16 13:29:45;;;;;;;15.32;9.82;;;;;;;;;;782538;176;924567;-62
2022/01/16 13:32:11;;;;;;;20.43;10.03;;;;;;;;;;780487;176;919288;-63
2022/01/16 13:34:38;;;;;;;26.05;12.43;;;;;;;;;;768975;180;918811;-63
2022/01/16 13:37:05;;;;;;;21.70;11.93;;;;;;;;;;767540;180;943429;-63
2022/01/16 13:39:32;;;;;;;30.50;14.17;;;;;;;;;;748434;184;921019;-63
2022/01/16 13:42:05;;;;;;;21.05;14.65;;;;;;;;;;783629;176;921168;-61
2022/01/16 13:44:30;;;;;;;23.83;13.53;;;;;;;;;;778366;179;922347;-64
2022/01/16 13:46:56;;;;;;;27.83;15.27;;;;;;;;;;779123;177;919070;-63
2022/01/16 13:49:22;;;;;;;33.27;16.50;;;;;;;;;;778602;177;919899;-62
2022/01/16 13:51:48;;;;;;;16.77;12.30;;;;;;;;;;785918;177;917940;-61
2022/01/16 13:54:14;;;;;;;26.27;13.98;;;;;;;;;;778033;177;918733;-62
2022/01/16 13:56:40;;;;;;;22.20;12.23;;;;;;;;;;774879;175;915836;-63
2022/01/16 13:59:06;;;;;;;34.95;13.55;;;;;;;;;;772661;180;915319;-62
2022/01/16 14:01:32;;;;;;;36.07;17.37;;;;;;;;;;757332;183;916985;-63
2022/01/16 14:03:58;;;;;;;21.63;11.60;;;;;;;;;;785937;175;916027;-62
2022/01/16 14:06:24;;;;;;;49.17;21.30;;;;;;;;;;783768;176;916567;-64
2022/01/16 14:08:50;;;;;;;31.93;14.93;;;;;;;;;;784394;177;915687;-63
2022/01/16 14:11:16;;;;;;;37.03;18.55;;;;;;;;;;778742;176;918914;-64
2022/01/16 14:13:45;;;;;;;37.80;18.10;;;;;;;;;;778944;176;918968;-64
2022/01/16 14:16:13;;;;;;;36.97;18.20;;;;;;;;;;783363;177;1020552;-63
2022/01/16 14:18:41;;;;;;;26.27;15.30;;;;;;;;;;782033;176;919379;-63
2022/01/16 14:23:36;;;;;;;40.47;18.87;;;;;;;;;;780652;176;918538;-62
2022/01/16 14:26:02;;;;;;;38.50;18.10;;;;;;;;;;785644;177;918222;-63
2022/01/16 14:28:28;;;;;;;39.47;18.60;;;;;;;;;;781589;177;922630;-62
2022/01/16 14:30:54;;;;;;;39.40;21.27;;;;;;;;;;773719;176;923781;-63
2022/01/16 14:33:20;;;;;;;27.93;14.80;;;;;;;;;;769518;180;915938;-62
2022/01/16 14:35:45;;;;;;;30.93;16.30;;;;;;;;;;777450;177;919076;-63
2022/01/16 14:38:18;;;;;;;35.27;18.47;;;;;;;;;;788332;176;919782;-63
2022/01/16 14:40:37;;;;;;;34.97;17.87;;;;;;;;;;771223;176;919378;-63